Time;durP1;ratioP1;P1;durP2;ratioP2;P2;SDS_P1;SDS_P2;PMS_P1;PMS_P2;Temp;Humidity;BMP_temperature;BMP_pressure;BME280_temperature;BME280_humidity;BME280_pressure;Samples;Min_cycle;Max_cycle;Signal;HPM_P1;HPM_P2
2022/12/25 00:00:27;;;;;;;44.45;13.23;;;;;;;;;;5041102;28;20041;-66
2022/12/25 00:02:52;;;;;;;44.72;14.25;;;;;;;;;;5038552;28;20410;-66
2022/12/25 00:05:18;;;;;;;51.05;14.35;;;;;;;;;;5034273;28;20041;-66
2022/12/25 00:07:44;;;;;;;54.42;14.60;;;;;;;;;;5043230;28;20505;-66
2022/12/25 00:10:10;;;;;;;45.72;12.77;;;;;;;;;;5039863;28;20111;-66
2022/12/25 00:12:36;;;;;;;44.92;13.25;;;;;;;;;;5050063;28;20037;-66
2022/12/25 00:15:03;;;;;;;48.30;13.75;;;;;;;;;;5041704;28;20026;-66
2022/12/25 00:17:29;;;;;;;45.05;12.57;;;;;;;;;;5038508;28;20067;-66
2022/12/25 00:19:55;;;;;;;45.15;13.48;;;;;;;;;;5045804;28;20029;-66
2022/12/25 00:22:21;;;;;;;44.88;13.68;;;;;;;;;;5037854;28;20140;-66
2022/12/25 00:24:47;;;;;;;39.85;13.57;;;;;;;;;;5045591;28;20063;-66
2022/12/25 00:27:13;;;;;;;44.28;14.35;;;;;;;;;;5042763;28;20049;-66
2022/12/25 00:29:39;;;;;;;48.00;12.63;;;;;;;;;;5044610;28;20040;-66
2022/12/25 00:32:05;;;;;;;40.05;12.55;;;;;;;;;;5041431;28;20037;-66
2022/12/25 00:34:32;;;;;;;44.47;12.50;;;;;;;;;;5053486;28;20041;-65
2022/12/25 00:36:57;;;;;;;39.70;12.90;;;;;;;;;;5046326;28;20041;-66
2022/12/25 00:39:24;;;;;;;40.85;12.80;;;;;;;;;;5041011;28;20402;-66
2022/12/25 00:44:35;;;;;;;42.40;12.80;;;;;;;;;;5042162;28;20049;-66
2022/12/25 00:47:01;;;;;;;39.00;11.70;;;;;;;;;;5041046;28;20124;-66
2022/12/25 00:49:28;;;;;;;43.80;11.48;;;;;;;;;;5037118;28;20065;-66
2022/12/25 00:51:54;;;;;;;34.17;11.85;;;;;;;;;;5036001;28;20060;-66
2022/12/25 00:54:20;;;;;;;36.92;11.68;;;;;;;;;;5043787;28;20487;-66
2022/12/25 00:56:46;;;;;;;35.97;10.95;;;;;;;;;;5048785;28;20576;-66
2022/12/25 00:59:12;;;;;;;36.58;11.50;;;;;;;;;;5055916;28;20045;-66
2022/12/25 01:01:38;;;;;;;39.45;11.57;;;;;;;;;;5043818;28;20049;-66
2022/12/25 01:04:04;;;;;;;38.70;9.70;;;;;;;;;;5041464;28;20041;-66
2022/12/25 01:06:30;;;;;;;31.90;10.43;;;;;;;;;;5039584;28;20043;-66
2022/12/25 01:11:41;;;;;;;19.92;7.85;;;;;;;;;;5043133;28;20059;-66
2022/12/25 01:14:07;;;;;;;24.35;9.23;;;;;;;;;;5036237;28;20056;-66
2022/12/25 01:16:33;;;;;;;25.85;9.40;;;;;;;;;;5043270;28;20394;-66
2022/12/25 01:18:59;;;;;;;39.63;9.50;;;;;;;;;;5042632;28;20167;-66
2022/12/25 01:21:25;;;;;;;30.98;8.82;;;;;;;;;;5047299;28;20059;-66
2022/12/25 01:23:52;;;;;;;37.83;9.68;;;;;;;;;;5052032;28;20037;-66
2022/12/25 01:26:19;;;;;;;51.97;10.23;;;;;;;;;;5043528;28;20094;-66
2022/12/25 01:28:45;;;;;;;38.83;8.93;;;;;;;;;;5040382;28;20046;-66
2022/12/25 01:31:12;;;;;;;35.05;9.68;;;;;;;;;;5032959;28;20037;-66
2022/12/25 01:33:39;;;;;;;26.55;9.50;;;;;;;;;;5040383;28;20040;-66
2022/12/25 01:36:12;;;;;;;25.52;9.57;;;;;;;;;;5090002;22;20039;-65
2022/12/25 01:38:38;;;;;;;25.05;9.70;;;;;;;;;;5081923;28;20040;-65
2022/12/25 01:41:04;;;;;;;29.33;10.98;;;;;;;;;;5070265;28;20044;-65
2022/12/25 01:43:31;;;;;;;33.05;10.90;;;;;;;;;;5072345;28;20052;-65
2022/12/25 01:45:57;;;;;;;28.90;10.65;;;;;;;;;;5069713;28;20060;-65
2022/12/25 01:48:32;;;;;;;26.52;11.27;;;;;;;;;;5085759;28;20043;-65
2022/12/25 01:51:00;;;;;;;40.60;11.90;;;;;;;;;;5090587;28;20040;-65
2022/12/25 01:53:27;;;;;;;37.00;11.05;;;;;;;;;;5083411;28;20094;-66
2022/12/25 01:55:55;;;;;;;33.40;11.52;;;;;;;;;;5088865;28;20052;-66
2022/12/25 01:58:21;;;;;;;41.83;12.32;;;;;;;;;;5084513;28;20463;-65
2022/12/25 02:00:47;;;;;;;42.75;12.13;;;;;;;;;;5070650;28;20277;-65
2022/12/25 02:03:13;;;;;;;39.65;11.40;;;;;;;;;;5069986;28;20230;-65
2022/12/25 02:05:39;;;;;;;35.08;11.45;;;;;;;;;;5071889;28;20082;-65
2022/12/25 02:08:09;;;;;;;46.58;13.48;;;;;;;;;;5090894;28;20119;-65
2022/12/25 02:10:37;;;;;;;43.38;12.70;;;;;;;;;;5091230;28;20143;-65
2022/12/25 02:13:04;;;;;;;42.65;12.65;;;;;;;;;;5091662;28;20139;-66
2022/12/25 02:15:39;;;;;;;42.88;12.57;;;;;;;;;;5091184;28;20085;-66
2022/12/25 02:18:09;;;;;;;33.40;12.20;;;;;;;;;;5090087;28;20044;-65
2022/12/25 02:20:47;;;;;;;39.90;13.03;;;;;;;;;;5082769;28;20032;-65
2022/12/25 02:23:21;;;;;;;46.97;13.15;;;;;;;;;;5086673;28;20104;-66
2022/12/25 02:25:47;;;;;;;36.60;11.00;;;;;;;;;;5088764;28;20123;-65
2022/12/25 02:28:21;;;;;;;37.97;12.63;;;;;;;;;;5070995;28;20463;-66
2022/12/25 02:30:54;;;;;;;36.88;11.95;;;;;;;;;;5069990;28;20056;-65
2022/12/25 02:34:02;;;;;;;41.42;12.85;;;;;;;;;;5070577;28;20102;-66
2022/12/25 02:36:32;;;;;;;42.42;11.93;;;;;;;;;;5086537;28;20052;-65
2022/12/25 02:41:45;;;;;;;46.33;12.40;;;;;;;;;;5082241;28;20083;-66
2022/12/25 03:06:45;;;;;;;38.08;11.73;;;;;;;;;;5077929;28;20083;-65
2022/12/25 03:12:09;;;;;;;46.00;12.93;;;;;;;;;;5072736;28;20040;-65
2022/12/25 03:17:20;;;;;;;45.15;12.30;;;;;;;;;;5089748;28;20106;-65
2022/12/25 03:28:02;;;;;;;35.20;12.05;;;;;;;;;;5093268;28;20044;-65
2022/12/25 03:36:44;;;;;;;42.45;12.70;;;;;;;;;;5072466;28;20056;-65
2022/12/25 04:37:39;;;;;;;54.47;15.98;;;;;;;;;;5072200;28;20040;-65
2022/12/25 04:40:05;;;;;;;47.78;15.63;;;;;;;;;;5076397;28;20028;-65
2022/12/25 04:42:31;;;;;;;44.47;15.70;;;;;;;;;;5092097;28;20047;-65
2022/12/25 04:44:57;;;;;;;52.75;15.70;;;;;;;;;;5089868;28;20046;-65
2022/12/25 04:47:23;;;;;;;44.60;14.70;;;;;;;;;;5092172;28;20072;-65
2022/12/25 04:49:49;;;;;;;42.20;14.93;;;;;;;;;;5091463;28;20257;-65
2022/12/25 04:52:15;;;;;;;46.47;14.65;;;;;;;;;;5088271;28;20045;-65
2022/12/25 04:54:41;;;;;;;42.92;14.88;;;;;;;;;;5087013;28;20147;-65
2022/12/25 04:57:07;;;;;;;45.13;15.63;;;;;;;;;;5092958;28;20490;-65
2022/12/25 04:59:33;;;;;;;47.08;16.38;;;;;;;;;;5092870;28;20040;-65
2022/12/25 05:01:59;;;;;;;52.03;14.73;;;;;;;;;;5084149;28;20048;-65
2022/12/25 05:04:25;;;;;;;38.88;14.82;;;;;;;;;;5082650;28;20455;-65
2022/12/25 05:06:51;;;;;;;41.42;15.05;;;;;;;;;;5091982;28;20047;-65
2022/12/25 05:09:17;;;;;;;44.55;15.90;;;;;;;;;;5087001;28;20514;-66
2022/12/25 05:11:43;;;;;;;40.08;14.82;;;;;;;;;;5070208;28;20041;-66
2022/12/25 05:14:09;;;;;;;46.90;15.38;;;;;;;;;;5071080;28;20149;-66
2022/12/25 05:16:35;;;;;;;43.53;15.63;;;;;;;;;;5089390;28;20131;-66
2022/12/25 05:19:01;;;;;;;42.38;15.05;;;;;;;;;;5091134;28;20121;-65
2022/12/25 05:21:27;;;;;;;44.15;14.77;;;;;;;;;;5091638;28;20036;-65
2022/12/25 05:23:53;;;;;;;44.65;16.63;;;;;;;;;;5081895;28;20410;-66
2022/12/25 05:26:21;;;;;;;51.35;15.68;;;;;;;;;;5091663;28;20044;-65
2022/12/25 05:28:47;;;;;;;41.42;16.08;;;;;;;;;;5091231;28;20493;-65
2022/12/25 05:31:14;;;;;;;45.45;15.65;;;;;;;;;;5092295;28;20043;-65
2022/12/25 05:33:40;;;;;;;47.55;16.38;;;;;;;;;;5090145;28;20125;-65
2022/12/25 05:36:06;;;;;;;52.67;16.13;;;;;;;;;;5091382;28;20485;-65
2022/12/25 05:38:33;;;;;;;38.97;15.95;;;;;;;;;;5090693;28;20085;-65
2022/12/25 05:40:59;;;;;;;49.38;16.63;;;;;;;;;;5092442;28;20040;-65
2022/12/25 05:43:25;;;;;;;44.42;16.55;;;;;;;;;;5090942;28;20050;-65
2022/12/25 05:45:51;;;;;;;50.53;17.52;;;;;;;;;;5092736;28;20500;-65
2022/12/25 05:48:17;;;;;;;46.60;15.65;;;;;;;;;;5090233;28;20504;-65
2022/12/25 05:50:43;;;;;;;44.58;16.48;;;;;;;;;;5090928;28;20051;-65
2022/12/25 05:53:11;;;;;;;42.00;16.48;;;;;;;;;;5090651;28;20047;-65
2022/12/25 05:55:37;;;;;;;51.00;16.25;;;;;;;;;;5090232;28;20040;-65
2022/12/25 05:58:04;;;;;;;50.75;15.98;;;;;;;;;;5090190;28;20040;-65
2022/12/25 06:00:30;;;;;;;41.42;16.23;;;;;;;;;;5091774;28;20051;-65
2022/12/25 06:02:56;;;;;;;44.20;15.88;;;;;;;;;;5091025;28;20481;-65
2022/12/25 06:05:22;;;;;;;48.92;17.73;;;;;;;;;;5091827;28;20044;-65
2022/12/25 06:07:48;;;;;;;44.97;15.82;;;;;;;;;;5092133;28;20121;-65
2022/12/25 06:10:14;;;;;;;50.03;16.73;;;;;;;;;;5090133;28;20040;-65
2022/12/25 06:12:40;;;;;;;44.00;15.98;;;;;;;;;;5090454;28;20047;-65
2022/12/25 06:15:09;;;;;;;38.63;16.17;;;;;;;;;;5091635;28;20036;-65
2022/12/25 06:17:35;;;;;;;42.00;16.23;;;;;;;;;;5091938;28;20040;-65
2022/12/25 06:20:01;;;;;;;46.67;17.00;;;;;;;;;;5090430;28;20547;-65
2022/12/25 06:22:31;;;;;;;40.97;15.93;;;;;;;;;;5077623;28;20047;-65
2022/12/25 06:24:57;;;;;;;42.40;15.45;;;;;;;;;;5071088;28;20076;-65
2022/12/25 06:27:24;;;;;;;43.28;15.65;;;;;;;;;;5075098;28;20048;-64
2022/12/25 06:29:50;;;;;;;41.97;15.38;;;;;;;;;;5089202;28;20052;-65
2022/12/25 06:32:16;;;;;;;40.45;15.88;;;;;;;;;;5090359;28;20044;-66
2022/12/25 06:34:42;;;;;;;42.08;16.10;;;;;;;;;;5089535;28;20043;-65
2022/12/25 06:37:08;;;;;;;37.22;15.13;;;;;;;;;;5081030;28;20403;-65
2022/12/25 06:39:34;;;;;;;38.20;14.68;;;;;;;;;;5069140;28;20044;-65
2022/12/25 06:42:00;;;;;;;38.58;14.77;;;;;;;;;;5073060;28;20047;-65
2022/12/25 06:44:26;;;;;;;40.55;14.05;;;;;;;;;;5091973;28;20043;-65
2022/12/25 06:46:52;;;;;;;32.67;13.63;;;;;;;;;;5091266;28;20402;-65
2022/12/25 06:49:19;;;;;;;39.10;13.60;;;;;;;;;;5090013;28;20040;-65
2022/12/25 06:51:45;;;;;;;31.20;13.23;;;;;;;;;;5090974;28;20044;-65
2022/12/25 06:54:11;;;;;;;33.75;13.85;;;;;;;;;;5070524;28;20044;-65
2022/12/25 06:56:37;;;;;;;36.30;13.18;;;;;;;;;;5085100;28;20502;-65
2022/12/25 06:59:04;;;;;;;32.83;13.88;;;;;;;;;;5091361;28;20371;-65
2022/12/25 07:01:33;;;;;;;37.08;12.73;;;;;;;;;;5076174;28;20101;-65
2022/12/25 07:04:00;;;;;;;35.38;13.38;;;;;;;;;;5074546;28;20044;-65
2022/12/25 07:06:27;;;;;;;34.53;13.00;;;;;;;;;;5071804;28;20400;-65
2022/12/25 07:08:53;;;;;;;29.88;12.75;;;;;;;;;;5088299;28;20044;-65
2022/12/25 07:11:20;;;;;;;29.35;12.73;;;;;;;;;;5069111;28;20048;-65
2022/12/25 07:13:46;;;;;;;31.77;12.52;;;;;;;;;;5083775;28;20517;-65
2022/12/25 07:16:13;;;;;;;29.50;11.48;;;;;;;;;;5089203;28;20036;-66
2022/12/25 07:18:39;;;;;;;29.42;11.80;;;;;;;;;;5091325;28;20444;-65
2022/12/25 07:21:09;;;;;;;32.95;12.27;;;;;;;;;;5084167;28;20040;-65
2022/12/25 07:23:35;;;;;;;28.10;12.13;;;;;;;;;;5077831;28;20071;-65
2022/12/25 07:26:02;;;;;;;31.10;12.05;;;;;;;;;;5090199;28;20036;-65
2022/12/25 07:28:28;;;;;;;28.60;11.95;;;;;;;;;;5079093;28;20045;-65
2022/12/25 07:30:54;;;;;;;32.65;11.70;;;;;;;;;;5079793;28;20044;-65
2022/12/25 07:33:20;;;;;;;27.73;11.52;;;;;;;;;;5090779;28;20040;-66
2022/12/25 07:35:46;;;;;;;23.50;11.35;;;;;;;;;;5077150;22;20043;-65
2022/12/25 07:38:12;;;;;;;29.05;11.32;;;;;;;;;;5013841;28;20067;-65
2022/12/25 07:40:38;;;;;;;27.33;11.80;;;;;;;;;;4989841;28;20055;-65
2022/12/25 07:43:04;;;;;;;22.00;10.88;;;;;;;;;;5005566;28;20042;-65
2022/12/25 07:45:30;;;;;;;28.52;10.98;;;;;;;;;;4985365;28;20050;-64
2022/12/25 07:47:56;;;;;;;20.52;9.75;;;;;;;;;;5009011;28;20496;-64
2022/12/25 07:50:22;;;;;;;25.35;9.48;;;;;;;;;;5010964;28;20069;-64
2022/12/25 07:52:48;;;;;;;26.42;10.18;;;;;;;;;;4999543;28;20133;-64
2022/12/25 07:55:14;;;;;;;28.08;10.27;;;;;;;;;;5008867;28;20045;-65
2022/12/25 07:57:40;;;;;;;29.40;9.80;;;;;;;;;;5016770;28;20038;-65
2022/12/25 08:00:06;;;;;;;25.50;10.88;;;;;;;;;;5003987;28;20066;-65
2022/12/25 08:02:32;;;;;;;27.88;10.25;;;;;;;;;;5007598;28;20049;-64
2022/12/25 08:04:58;;;;;;;25.05;9.65;;;;;;;;;;5000782;28;20045;-64
2022/12/25 08:07:26;;;;;;;21.98;10.07;;;;;;;;;;5019306;28;20584;-64
2022/12/25 08:09:52;;;;;;;19.17;9.25;;;;;;;;;;5010525;28;20144;-65
2022/12/25 08:12:18;;;;;;;23.60;9.52;;;;;;;;;;5010314;28;20041;-65
2022/12/25 08:14:44;;;;;;;21.05;9.75;;;;;;;;;;4995250;28;20042;-64
2022/12/25 08:17:10;;;;;;;21.70;9.48;;;;;;;;;;5026381;28;20124;-65
2022/12/25 08:19:36;;;;;;;23.23;9.18;;;;;;;;;;5025508;28;20046;-65
2022/12/25 08:22:02;;;;;;;25.45;9.15;;;;;;;;;;5008997;28;20052;-64
2022/12/25 08:24:28;;;;;;;26.45;9.65;;;;;;;;;;5022037;28;20042;-65
2022/12/25 08:26:54;;;;;;;26.27;9.68;;;;;;;;;;5012256;28;20427;-65
2022/12/25 08:29:20;;;;;;;20.05;8.98;;;;;;;;;;5012472;28;20049;-65
2022/12/25 08:31:46;;;;;;;17.55;9.05;;;;;;;;;;5011615;28;20575;-65
2022/12/25 08:34:12;;;;;;;25.17;9.50;;;;;;;;;;5012720;28;20034;-65
2022/12/25 08:36:38;;;;;;;24.77;8.75;;;;;;;;;;5012136;28;20322;-65
2022/12/25 08:39:07;;;;;;;22.33;9.13;;;;;;;;;;4996056;28;20072;-65
2022/12/25 08:41:37;;;;;;;22.27;9.93;;;;;;;;;;5020788;28;20103;-65
2022/12/25 08:44:03;;;;;;;21.13;8.30;;;;;;;;;;5019376;28;20049;-65
2022/12/25 08:46:29;;;;;;;26.23;9.70;;;;;;;;;;5020866;28;20439;-65
2022/12/25 08:48:55;;;;;;;18.27;8.70;;;;;;;;;;4996429;28;20491;-65
2022/12/25 08:51:22;;;;;;;15.32;7.38;;;;;;;;;;5010977;28;20539;-65
2022/12/25 08:53:49;;;;;;;18.05;8.65;;;;;;;;;;4994732;28;20046;-65
2022/12/25 08:56:15;;;;;;;20.70;8.80;;;;;;;;;;5002145;28;20033;-65
2022/12/25 08:58:42;;;;;;;17.77;7.78;;;;;;;;;;5010646;28;20042;-65
2022/12/25 09:01:08;;;;;;;17.92;8.50;;;;;;;;;;5013912;28;20077;-65
2022/12/25 09:03:34;;;;;;;18.45;7.60;;;;;;;;;;5012159;28;20034;-66
2022/12/25 09:06:11;;;;;;;18.80;8.02;;;;;;;;;;4994833;28;20037;-65
2022/12/25 09:08:37;;;;;;;21.17;8.23;;;;;;;;;;5017208;28;20136;-65
2022/12/25 09:11:04;;;;;;;19.02;7.97;;;;;;;;;;5004609;28;20745;-65
2022/12/25 09:13:30;;;;;;;17.88;7.57;;;;;;;;;;5007327;28;20038;-65
2022/12/25 09:15:56;;;;;;;22.38;7.53;;;;;;;;;;5026351;28;20519;-65
2022/12/25 09:18:22;;;;;;;17.50;7.57;;;;;;;;;;4991036;28;20087;-65
2022/12/25 09:20:56;;;;;;;15.48;6.57;;;;;;;;;;5010001;28;20038;-65
2022/12/25 09:23:22;;;;;;;16.85;7.75;;;;;;;;;;5011281;28;20080;-65
2022/12/25 09:25:48;;;;;;;18.33;7.32;;;;;;;;;;5011380;28;20424;-65
2022/12/25 09:28:14;;;;;;;18.23;7.40;;;;;;;;;;5014373;28;20120;-65
2022/12/25 09:30:40;;;;;;;14.32;7.40;;;;;;;;;;5023350;28;20038;-65
2022/12/25 09:33:06;;;;;;;18.15;7.38;;;;;;;;;;4988675;28;20071;-65
2022/12/25 09:35:32;;;;;;;16.45;7.97;;;;;;;;;;5010041;28;20555;-64
2022/12/25 09:37:58;;;;;;;16.25;7.10;;;;;;;;;;5012423;28;20038;-65
2022/12/25 09:40:26;;;;;;;18.67;7.78;;;;;;;;;;5011398;28;20395;-64
2022/12/25 09:42:53;;;;;;;16.60;6.80;;;;;;;;;;5006886;28;20116;-65
2022/12/25 09:45:25;;;;;;;18.50;8.20;;;;;;;;;;5010832;28;20045;-64
2022/12/25 09:47:53;;;;;;;15.60;7.88;;;;;;;;;;5009898;28;20496;-64
2022/12/25 09:50:22;;;;;;;16.48;7.75;;;;;;;;;;5011763;28;20038;-64
2022/12/25 09:53:00;;;;;;;18.42;7.55;;;;;;;;;;5010215;28;20133;-64
2022/12/25 09:55:28;;;;;;;22.08;8.57;;;;;;;;;;5012140;28;20046;-64
2022/12/25 09:57:55;;;;;;;15.98;8.05;;;;;;;;;;5009804;28;20136;-64
2022/12/25 10:00:23;;;;;;;16.65;7.43;;;;;;;;;;5011059;28;20042;-63
2022/12/25 10:02:59;;;;;;;21.95;8.60;;;;;;;;;;5008305;28;20496;-63
2022/12/25 10:05:41;;;;;;;16.35;8.13;;;;;;;;;;5009946;28;20061;-63
2022/12/25 10:08:13;;;;;;;21.95;8.02;;;;;;;;;;5009512;28;20132;-62
2022/12/25 10:10:45;;;;;;;15.98;8.10;;;;;;;;;;5019892;28;20519;-63
2022/12/25 10:13:11;;;;;;;15.60;8.15;;;;;;;;;;5014360;28;20141;-63
2022/12/25 10:15:57;;;;;;;17.17;8.02;;;;;;;;;;5005653;28;20153;-63
2022/12/25 10:18:23;;;;;;;18.05;8.00;;;;;;;;;;5003375;28;20131;-64
2022/12/25 10:20:51;;;;;;;18.13;8.25;;;;;;;;;;5010807;28;20065;-65
2022/12/25 10:23:38;;;;;;;17.20;8.98;;;;;;;;;;5004161;28;20050;-65
2022/12/25 10:26:13;;;;;;;15.45;8.20;;;;;;;;;;5018168;28;20523;-65
2022/12/25 10:28:43;;;;;;;16.50;7.93;;;;;;;;;;5028397;28;20516;-65
2022/12/25 10:31:42;;;;;;;16.80;7.65;;;;;;;;;;5007815;28;20038;-65
2022/12/25 10:34:10;;;;;;;20.02;7.85;;;;;;;;;;4976760;28;20042;-65
2022/12/25 10:36:36;;;;;;;15.40;7.97;;;;;;;;;;5010405;28;20056;-65
2022/12/25 10:39:02;;;;;;;18.77;7.93;;;;;;;;;;5013070;28;20454;-65
2022/12/25 10:41:33;;;;;;;14.57;7.28;;;;;;;;;;5018987;28;20064;-65
2022/12/25 10:43:59;;;;;;;16.73;8.23;;;;;;;;;;5011707;28;20069;-65
2022/12/25 10:46:26;;;;;;;16.80;7.60;;;;;;;;;;5011283;28;20395;-65
2022/12/25 10:48:54;;;;;;;14.52;7.60;;;;;;;;;;5002744;28;20046;-65
2022/12/25 10:51:31;;;;;;;17.23;7.82;;;;;;;;;;5006652;28;20049;-64
2022/12/25 10:53:57;;;;;;;21.55;8.25;;;;;;;;;;5005173;28;20095;-65
2022/12/25 10:56:23;;;;;;;17.00;8.07;;;;;;;;;;5008991;28;20044;-65
2022/12/25 10:58:49;;;;;;;15.43;8.10;;;;;;;;;;5008991;28;20038;-65
2022/12/25 11:01:16;;;;;;;16.70;8.00;;;;;;;;;;5013177;28;20137;-64
2022/12/25 11:03:47;;;;;;;17.75;8.20;;;;;;;;;;5014919;28;20471;-65
2022/12/25 11:06:26;;;;;;;16.52;7.82;;;;;;;;;;5014630;28;20037;-64
2022/12/25 11:09:02;;;;;;;16.98;7.38;;;;;;;;;;4995632;28;20042;-65
2022/12/25 11:11:28;;;;;;;17.85;7.43;;;;;;;;;;5009497;28;20104;-65
2022/12/25 11:13:57;;;;;;;16.67;6.60;;;;;;;;;;5007021;28;20038;-65
2022/12/25 11:16:34;;;;;;;15.35;7.07;;;;;;;;;;5011847;28;20061;-65
2022/12/25 11:19:01;;;;;;;15.18;6.43;;;;;;;;;;5017776;28;20555;-65
2022/12/25 11:21:31;;;;;;;17.95;6.88;;;;;;;;;;5011822;28;20042;-65
2022/12/25 11:23:57;;;;;;;15.68;6.68;;;;;;;;;;5008224;28;20058;-65
2022/12/25 11:26:23;;;;;;;17.00;7.15;;;;;;;;;;5007261;28;20041;-65
2022/12/25 11:28:50;;;;;;;14.85;6.18;;;;;;;;;;5022001;28;20045;-65
2022/12/25 11:31:18;;;;;;;18.08;6.28;;;;;;;;;;5021426;28;20116;-65
2022/12/25 11:33:44;;;;;;;14.30;6.38;;;;;;;;;;5020860;28;20050;-64
2022/12/25 11:36:17;;;;;;;17.33;6.38;;;;;;;;;;5009849;28;20045;-63
2022/12/25 11:38:43;;;;;;;15.75;6.50;;;;;;;;;;5008787;28;20040;-64
2022/12/25 11:41:09;;;;;;;13.55;6.50;;;;;;;;;;5021844;28;20497;-65
2022/12/25 11:43:40;;;;;;;15.45;6.30;;;;;;;;;;5011125;28;20121;-64
2022/12/25 11:46:25;;;;;;;16.02;6.70;;;;;;;;;;5007095;28;20146;-65
2022/12/25 11:48:56;;;;;;;15.20;6.80;;;;;;;;;;5001240;28;20045;-65
2022/12/25 11:51:32;;;;;;;17.75;7.45;;;;;;;;;;5022319;28;20463;-65
2022/12/25 11:54:01;;;;;;;18.23;7.50;;;;;;;;;;5014279;28;20096;-65
2022/12/25 11:56:29;;;;;;;15.98;7.18;;;;;;;;;;5014884;28;20575;-65
2022/12/25 11:59:00;;;;;;;15.75;6.97;;;;;;;;;;5014865;28;20029;-65
2022/12/25 12:01:30;;;;;;;17.73;7.60;;;;;;;;;;4996582;28;21557;-64
2022/12/25 12:03:58;;;;;;;17.33;7.23;;;;;;;;;;5022104;28;20294;-65
2022/12/25 12:06:42;;;;;;;15.15;7.57;;;;;;;;;;5015031;28;20071;-64
2022/12/25 12:09:24;;;;;;;23.52;8.18;;;;;;;;;;5014797;28;20125;-65
2022/12/25 12:11:58;;;;;;;21.65;7.90;;;;;;;;;;5014638;28;20046;-64
2022/12/25 12:14:36;;;;;;;17.27;8.35;;;;;;;;;;5009953;28;20045;-64
2022/12/25 12:17:02;;;;;;;21.77;8.35;;;;;;;;;;5015169;28;20117;-65
2022/12/25 12:19:29;;;;;;;15.40;7.72;;;;;;;;;;5014316;28;20038;-65
2022/12/25 12:21:57;;;;;;;19.83;8.80;;;;;;;;;;5014799;28;20069;-65
2022/12/25 12:24:24;;;;;;;17.92;8.98;;;;;;;;;;4990568;28;20061;-65
2022/12/25 12:27:04;;;;;;;20.27;9.70;;;;;;;;;;5012077;28;20038;-64
2022/12/25 12:29:42;;;;;;;21.92;10.55;;;;;;;;;;5029733;28;20407;-65
2022/12/25 12:32:38;;;;;;;20.10;9.90;;;;;;;;;;5034338;28;20399;-65
2022/12/25 12:35:22;;;;;;;18.48;9.98;;;;;;;;;;5024713;28;20049;-65
2022/12/25 12:37:56;;;;;;;20.70;9.38;;;;;;;;;;5033980;28;20049;-65
2022/12/25 12:40:25;;;;;;;29.83;13.40;;;;;;;;;;5019698;28;20034;-65
2022/12/25 12:42:51;;;;;;;29.05;12.88;;;;;;;;;;5020797;28;20073;-65
2022/12/25 12:45:24;;;;;;;19.67;10.70;;;;;;;;;;5014271;28;20069;-65
2022/12/25 12:47:51;;;;;;;21.60;11.82;;;;;;;;;;5013941;28;20042;-65
2022/12/25 12:50:26;;;;;;;27.40;14.68;;;;;;;;;;5014206;28;20038;-65
2022/12/25 12:52:52;;;;;;;23.83;9.82;;;;;;;;;;5015107;28;20048;-65
2022/12/25 12:55:27;;;;;;;18.92;9.43;;;;;;;;;;5016228;28;20120;-65
2022/12/25 12:57:58;;;;;;;17.27;9.73;;;;;;;;;;5032841;28;20083;-65
2022/12/25 13:00:24;;;;;;;19.05;9.50;;;;;;;;;;5034716;28;20041;-65
2022/12/25 13:03:09;;;;;;;19.98;9.52;;;;;;;;;;5033519;28;20042;-65
2022/12/25 13:05:49;;;;;;;20.77;9.65;;;;;;;;;;5033205;28;20041;-65
2022/12/25 13:08:35;;;;;;;23.70;9.02;;;;;;;;;;5027607;28;20048;-65
2022/12/25 13:11:13;;;;;;;29.70;15.40;;;;;;;;;;5017107;28;20056;-65
2022/12/25 13:13:41;;;;;;;24.25;12.35;;;;;;;;;;5033267;28;20049;-64
2022/12/25 13:16:15;;;;;;;23.67;11.68;;;;;;;;;;5033448;28;20386;-64
2022/12/25 13:18:41;;;;;;;21.10;9.60;;;;;;;;;;5032880;28;20056;-64
2022/12/25 13:21:08;;;;;;;17.38;8.88;;;;;;;;;;5033312;28;20037;-65
2022/12/25 13:23:35;;;;;;;19.38;9.27;;;;;;;;;;5016103;28;20045;-65
2022/12/25 13:26:01;;;;;;;19.08;9.00;;;;;;;;;;5024514;28;20045;-64
2022/12/25 13:28:28;;;;;;;22.02;10.63;;;;;;;;;;5033364;28;20384;-64
2022/12/25 13:31:01;;;;;;;18.13;10.25;;;;;;;;;;5015537;28;20052;-64
2022/12/25 13:33:27;;;;;;;21.15;10.98;;;;;;;;;;5015263;28;20091;-64
2022/12/25 13:35:53;;;;;;;28.30;13.88;;;;;;;;;;5050418;22;20037;-69
2022/12/25 13:38:19;;;;;;;38.25;17.77;;;;;;;;;;5064590;28;20041;-70
2022/12/25 13:43:40;;;;;;;32.13;15.80;;;;;;;;;;5072481;28;20056;-70
2022/12/25 13:46:06;;;;;;;23.88;12.20;;;;;;;;;;5072051;28;20044;-71
2022/12/25 13:48:32;;;;;;;23.05;12.18;;;;;;;;;;5073158;28;20045;-71
2022/12/25 13:50:59;;;;;;;27.80;12.52;;;;;;;;;;5053287;28;20041;-71
2022/12/25 13:53:25;;;;;;;36.85;16.63;;;;;;;;;;5058852;28;20482;-71
2022/12/25 13:55:53;;;;;;;35.75;16.52;;;;;;;;;;5072721;28;20040;-69
2022/12/25 13:58:25;;;;;;;45.40;18.33;;;;;;;;;;5072414;28;20037;-70
2022/12/25 14:00:52;;;;;;;26.00;13.07;;;;;;;;;;5072256;28;20406;-70
2022/12/25 14:03:20;;;;;;;24.13;12.55;;;;;;;;;;5066707;28;20055;-70
2022/12/25 14:05:54;;;;;;;25.33;11.95;;;;;;;;;;5051940;28;20124;-70
2022/12/25 14:08:22;;;;;;;22.48;11.90;;;;;;;;;;5060858;28;20051;-70
2022/12/25 14:10:49;;;;;;;25.60;12.25;;;;;;;;;;5051789;28;20036;-69
2022/12/25 14:13:16;;;;;;;27.50;13.73;;;;;;;;;;5052027;28;20514;-70
2022/12/25 14:15:42;;;;;;;26.33;13.65;;;;;;;;;;5052501;28;20080;-70
2022/12/25 14:18:15;;;;;;;29.35;14.10;;;;;;;;;;5048868;28;20069;-70
2022/12/25 14:20:42;;;;;;;29.92;14.25;;;;;;;;;;5047078;28;20041;-70
2022/12/25 14:23:11;;;;;;;24.48;13.38;;;;;;;;;;5064574;28;20041;-71
2022/12/25 14:25:41;;;;;;;26.45;12.40;;;;;;;;;;5063104;28;20036;-70
2022/12/25 14:28:08;;;;;;;29.63;13.00;;;;;;;;;;5052077;28;20080;-70
2022/12/25 14:30:35;;;;;;;25.80;12.98;;;;;;;;;;5051934;28;20094;-71
2022/12/25 14:33:02;;;;;;;26.25;14.25;;;;;;;;;;5046896;28;20128;-71
2022/12/25 14:35:28;;;;;;;26.90;13.55;;;;;;;;;;5049219;28;20048;-71
2022/12/25 14:37:56;;;;;;;27.02;13.60;;;;;;;;;;5049087;28;20029;-71
2022/12/25 14:40:29;;;;;;;25.15;13.10;;;;;;;;;;5063507;28;20043;-71
2022/12/25 14:43:20;;;;;;;27.42;13.82;;;;;;;;;;5071487;28;20071;-71
2022/12/25 14:45:53;;;;;;;27.80;13.55;;;;;;;;;;5071533;28;20095;-70
2022/12/25 14:48:25;;;;;;;27.50;13.90;;;;;;;;;;5062452;28;20124;-70
2022/12/25 14:51:13;;;;;;;26.17;12.82;;;;;;;;;;5052892;28;20042;-70
2022/12/25 14:53:47;;;;;;;23.98;12.82;;;;;;;;;;5063107;28;20044;-70
2022/12/25 14:56:17;;;;;;;27.63;12.05;;;;;;;;;;5071245;28;20465;-69
2022/12/25 14:58:46;;;;;;;27.75;13.07;;;;;;;;;;5071991;28;20115;-70
2022/12/25 15:01:20;;;;;;;28.52;12.50;;;;;;;;;;5061387;28;20132;-69
2022/12/25 15:03:47;;;;;;;30.67;13.02;;;;;;;;;;5061030;28;20084;-70
2022/12/25 15:06:18;;;;;;;25.05;13.25;;;;;;;;;;5054119;28;20048;-70
2022/12/25 15:08:54;;;;;;;29.20;13.07;;;;;;;;;;5062918;28;20406;-70
2022/12/25 15:11:20;;;;;;;26.25;12.88;;;;;;;;;;5071211;28;20043;-70
2022/12/25 15:13:46;;;;;;;27.75;12.52;;;;;;;;;;5070441;28;20040;-70
2022/12/25 15:16:14;;;;;;;26.30;14.07;;;;;;;;;;5067355;28;20116;-69
2022/12/25 15:18:41;;;;;;;33.22;14.45;;;;;;;;;;5058904;28;20047;-70
2022/12/25 15:21:13;;;;;;;30.13;14.13;;;;;;;;;;5045919;28;20036;-69
2022/12/25 15:23:39;;;;;;;26.38;13.93;;;;;;;;;;5069328;28;20040;-69
2022/12/25 15:26:05;;;;;;;32.75;14.07;;;;;;;;;;5077471;28;20508;-70
2022/12/25 15:28:31;;;;;;;27.77;13.77;;;;;;;;;;5063146;28;20041;-69
2022/12/25 15:30:57;;;;;;;33.95;15.43;;;;;;;;;;5077624;28;20046;-69
2022/12/25 15:33:23;;;;;;;32.47;14.80;;;;;;;;;;5078008;28;20044;-69
2022/12/25 15:35:49;;;;;;;35.22;14.70;;;;;;;;;;5070952;28;20044;-70
2022/12/25 15:38:15;;;;;;;31.90;15.10;;;;;;;;;;5070655;28;20040;-69
2022/12/25 15:40:41;;;;;;;31.25;15.15;;;;;;;;;;5064131;28;20577;-69
2022/12/25 15:43:09;;;;;;;29.40;16.13;;;;;;;;;;5062071;28;20587;-69
2022/12/25 15:45:35;;;;;;;39.92;16.67;;;;;;;;;;5062927;28;20043;-69
2022/12/25 15:48:01;;;;;;;29.83;14.95;;;;;;;;;;5077682;28;20228;-69
2022/12/25 15:50:28;;;;;;;31.10;15.95;;;;;;;;;;5077677;28;20040;-70
2022/12/25 15:52:54;;;;;;;39.85;16.00;;;;;;;;;;5077580;28;20127;-70
2022/12/25 15:55:20;;;;;;;33.05;15.50;;;;;;;;;;5067160;28;20128;-69
2022/12/25 15:57:47;;;;;;;32.63;16.55;;;;;;;;;;5054448;28;20072;-69
2022/12/25 16:00:18;;;;;;;39.47;17.17;;;;;;;;;;5059220;28;20072;-69
2022/12/25 16:02:44;;;;;;;33.15;16.20;;;;;;;;;;5074803;28;20119;-69
2022/12/25 16:05:10;;;;;;;34.58;16.27;;;;;;;;;;5077485;28;20040;-69
2022/12/25 16:07:36;;;;;;;36.85;16.05;;;;;;;;;;5060694;28;20063;-69
2022/12/25 16:10:02;;;;;;;39.92;17.48;;;;;;;;;;5060332;28;20037;-69
2022/12/25 16:12:28;;;;;;;33.30;16.05;;;;;;;;;;5058052;28;20079;-70
2022/12/25 16:14:54;;;;;;;39.00;18.15;;;;;;;;;;5068904;28;20502;-69
2022/12/25 16:17:20;;;;;;;45.97;17.88;;;;;;;;;;5077232;28;20371;-69
2022/12/25 16:19:46;;;;;;;37.45;17.35;;;;;;;;;;5063623;28;20047;-69